MAPA DE AEROPUERTO

INFORMACIÓN METAR y TAF

METAR FOR LEAS
ADDS - METARS form results

(1646 UTC 17 April 2021)
Data provider http://aviationweather.gov/metar/data/
 
METAR text: LEAS 171630Z 09012KT 060V120 CAVOK 12/03 Q1023 NOSIG
Conditions at: LEAS (ASTURIAS/AVILES , ES) observed 1630 UTC 17 April 2021
Temperature: 12.0°C (54°F)
Dewpoint: 3.0°C (37°F) [RH = 54%]
Pressure (altimeter): 30.21 inches Hg (1023.0 mb)
Winds: from the E (90 degrees) at 14 MPH (12 knots; 6.2 m/s)
Visibility: 6 or more miles (10+ km)
Ceiling: ceiling and visibility are OK
Clouds: unknown
Weather: no significant weather observed at this time

METAR text: LEAS 171600Z 09013KT 060V120 CAVOK 12/04 Q1023 NOSIG
Conditions at: LEAS (ASTURIAS/AVILES , ES) observed 1600 UTC 17 April 2021
Temperature: 12.0°C (54°F)
Dewpoint: 4.0°C (39°F) [RH = 58%]
Pressure (altimeter): 30.21 inches Hg (1023.0 mb)
Winds: from the E (90 degrees) at 15 MPH (13 knots; 6.7 m/s)
Visibility: 6 or more miles (10+ km)
Ceiling: ceiling and visibility are OK
Clouds: unknown
Weather: no significant weather observed at this time

Forecast for: LEAS (ASTURIAS/AVILES , ES)
Text: TAF LEAS 171400Z 1715/1815 07014KT CAVOK TX16/1813Z TN02/1805Z
Forecast period: 1500 to 2000 UTC 17 April 2021
Forecast type: FROM: standard forecast or significant change
Winds: from the ENE (70 degrees) at 16 MPH (14 knots; 7.2 m/s)
Visibility: 6 or more miles (10+ km)
Ceiling: unknown
Clouds: missing
Weather: no significant weather forecast for this period
Text: PROB40
Forecast period: 1500 to 1900 UTC 17 April 2021
Forecast type: TEMPORARY: The following changes expected for less than half the time period
Winds: from the ENE (60 degrees) at 17 MPH (15 knots; 7.7 m/s)
gusting to 29 MPH (25 knots; 12.9 m/s)
Visibility: missing
Ceiling: unknown
Clouds: missing
Weather: no significant weather forecast for this period
Text: TEMPO 1715/1719 06015G25KT
Forecast period: 2000 UTC 17 April 2021 to 0900 UTC 18 April 2021
Forecast type: BECOMING: Conditions expected to become as follows by 2200 UTC 17 April 2021
Winds: from the SE (140 degrees) at 8 MPH (7 knots; 3.6 m/s)
Visibility: 6 or more miles (10+ km)
Ceiling: unknown
Clouds: missing
Weather: no significant weather forecast for this period
Text: BECMG 1720/1722 14007KT
Forecast period: 0900 to 1500 UTC 18 April 2021
Forecast type: BECOMING: Conditions expected to become as follows by 1100 UTC 18 April 2021
Winds: from the E (80 degrees) at 12 MPH (10 knots; 5.1 m/s)
Visibility: 6 or more miles (10+ km)
Ceiling: unknown
Clouds: missing
Weather: no significant weather forecast for this period